Time;durP1;ratioP1;P1;durP2;ratioP2;P2;SDS_P1;SDS_P2;PMS_P1;PMS_P2;Temp;Humidity;BMP_temperature;BMP_pressure;BME280_temperature;BME280_humidity;BME280_pressure;Samples;Min_cycle;Max_cycle;Signal;HPM_P1;HPM_P2
2022/04/25 00:02:21;;;;;;;9.37;5.93;;;;;;;;;;5113780;28;20528;-54
2022/04/25 00:04:46;;;;;;;8.60;6.13;;;;;;;;;;5113734;28;20206;-55
2022/04/25 00:07:12;;;;;;;10.60;6.47;;;;;;;;;;5114131;28;20672;-55
2022/04/25 00:09:40;;;;;;;10.10;6.10;;;;;;;;;;5113884;28;20210;-56
2022/04/25 00:12:06;;;;;;;11.33;6.33;;;;;;;;;;5111733;28;20205;-55
2022/04/25 00:14:32;;;;;;;7.57;5.80;;;;;;;;;;5113378;27;20235;-54
2022/04/25 00:16:58;;;;;;;10.77;5.83;;;;;;;;;;5113552;28;20205;-54
2022/04/25 00:19:24;;;;;;;9.13;5.93;;;;;;;;;;5113314;28;20194;-53
2022/04/25 00:21:53;;;;;;;9.07;5.97;;;;;;;;;;5113331;27;20201;-54
2022/04/25 00:24:19;;;;;;;10.63;6.10;;;;;;;;;;5113143;28;20230;-53
2022/04/25 00:26:47;;;;;;;12.37;6.57;;;;;;;;;;5113421;28;20194;-53
2022/04/25 00:29:13;;;;;;;8.50;5.73;;;;;;;;;;5113320;28;20266;-53
2022/04/25 00:31:39;;;;;;;9.80;6.17;;;;;;;;;;5112946;28;20206;-53
2022/04/25 00:34:05;;;;;;;7.70;5.37;;;;;;;;;;5113116;28;20247;-55
2022/04/25 00:36:31;;;;;;;8.93;5.80;;;;;;;;;;5112909;28;20198;-54
2022/04/25 00:38:57;;;;;;;8.60;5.63;;;;;;;;;;5112931;28;20569;-55
2022/04/25 00:41:23;;;;;;;8.37;5.83;;;;;;;;;;5112854;28;20192;-55
2022/04/25 00:43:54;;;;;;;10.53;5.53;;;;;;;;;;5112627;28;20321;-55
2022/04/25 00:46:20;;;;;;;8.13;5.33;;;;;;;;;;5112794;28;20666;-55
2022/04/25 00:48:46;;;;;;;7.90;5.30;;;;;;;;;;5112826;28;20695;-55
2022/04/25 00:51:12;;;;;;;7.70;5.40;;;;;;;;;;5112950;28;20267;-55
2022/04/25 00:53:39;;;;;;;8.03;5.50;;;;;;;;;;5112870;28;20186;-55
2022/04/25 00:56:06;;;;;;;8.47;5.70;;;;;;;;;;5112962;28;20554;-56
2022/04/25 00:58:32;;;;;;;7.23;5.20;;;;;;;;;;5113070;28;20194;-55
2022/04/25 01:00:59;;;;;;;8.00;4.93;;;;;;;;;;5112736;28;20196;-55
2022/04/25 01:03:25;;;;;;;8.70;5.50;;;;;;;;;;5112727;28;20223;-56
2022/04/25 01:05:52;;;;;;;8.97;5.50;;;;;;;;;;5113009;28;20209;-55
2022/04/25 01:08:19;;;;;;;8.63;5.43;;;;;;;;;;5112842;28;20218;-55
2022/04/25 01:10:45;;;;;;;7.20;5.53;;;;;;;;;;5112832;28;20209;-56
2022/04/25 01:13:11;;;;;;;12.73;5.23;;;;;;;;;;5112972;28;20191;-55
2022/04/25 01:15:37;;;;;;;8.43;5.17;;;;;;;;;;5112431;28;20250;-55
2022/04/25 01:18:05;;;;;;;6.23;5.40;;;;;;;;;;5112951;28;20297;-56
2022/04/25 01:20:31;;;;;;;9.03;5.30;;;;;;;;;;5112355;28;20656;-56
2022/04/25 01:27:15;;;;;;;8.87;5.37;;;;;;;;;;5112102;28;20305;-55
2022/04/25 01:28:30;;;;;;;7.23;4.97;;;;;;;;;;5112768;28;20291;-55
2022/04/25 01:30:56;;;;;;;9.40;5.53;;;;;;;;;;5112080;28;20552;-56
2022/04/25 01:33:22;;;;;;;6.37;4.53;;;;;;;;;;5112064;28;20281;-55
2022/04/25 01:35:48;;;;;;;7.70;5.00;;;;;;;;;;5112317;28;20221;-55
2022/04/25 01:38:14;;;;;;;7.80;5.37;;;;;;;;;;5112477;28;20190;-55
2022/04/25 01:40:40;;;;;;;7.27;5.40;;;;;;;;;;5111923;28;20664;-56
2022/04/25 01:43:07;;;;;;;6.60;4.73;;;;;;;;;;5112087;28;20286;-56
2022/04/25 01:45:33;;;;;;;10.30;5.70;;;;;;;;;;5112193;28;20206;-56
2022/04/25 01:47:59;;;;;;;10.47;5.70;;;;;;;;;;5112010;28;20206;-56
2022/04/25 01:50:25;;;;;;;8.87;5.37;;;;;;;;;;5111828;28;20202;-55
2022/04/25 01:52:51;;;;;;;7.90;5.10;;;;;;;;;;5111789;28;20660;-55
2022/04/25 01:55:17;;;;;;;7.33;5.27;;;;;;;;;;5111990;28;20194;-56
2022/04/25 01:57:43;;;;;;;5.50;4.90;;;;;;;;;;5111971;28;20210;-56
2022/04/25 02:00:10;;;;;;;6.87;4.97;;;;;;;;;;5111929;28;20190;-56
2022/04/25 02:02:37;;;;;;;7.53;5.60;;;;;;;;;;5111493;28;20750;-55
2022/04/25 02:05:04;;;;;;;6.80;5.07;;;;;;;;;;5111831;28;20202;-55
2022/04/25 02:07:30;;;;;;;8.83;5.60;;;;;;;;;;5111996;28;20232;-55
2022/04/25 02:09:56;;;;;;;8.70;5.30;;;;;;;;;;5111759;28;20292;-55
2022/04/25 02:12:22;;;;;;;6.67;5.20;;;;;;;;;;5112047;28;20225;-55
2022/04/25 02:14:48;;;;;;;7.60;5.20;;;;;;;;;;5114621;28;20233;-55
2022/04/25 02:17:15;;;;;;;6.93;5.53;;;;;;;;;;5116227;28;20202;-55
2022/04/25 02:19:44;;;;;;;6.30;5.43;;;;;;;;;;5116065;28;20203;-55
2022/04/25 02:22:11;;;;;;;10.07;5.93;;;;;;;;;;5115951;28;20212;-55
2022/04/25 02:24:37;;;;;;;7.60;5.50;;;;;;;;;;5115815;28;20279;-55
2022/04/25 02:27:03;;;;;;;8.17;5.20;;;;;;;;;;5116105;28;20232;-55
2022/04/25 02:29:29;;;;;;;11.00;6.07;;;;;;;;;;5116131;27;20296;-55
2022/04/25 02:31:56;;;;;;;8.47;5.53;;;;;;;;;;5115672;28;20194;-55
2022/04/25 02:34:23;;;;;;;8.40;5.60;;;;;;;;;;5115604;28;20244;-55
2022/04/25 02:36:49;;;;;;;8.30;5.40;;;;;;;;;;5115652;28;20198;-55
2022/04/25 02:39:15;;;;;;;9.40;6.33;;;;;;;;;;5115929;28;20202;-55
2022/04/25 02:41:41;;;;;;;6.83;5.27;;;;;;;;;;5115743;28;20209;-55
2022/04/25 02:44:07;;;;;;;8.00;5.20;;;;;;;;;;5115740;28;20221;-55
2022/04/25 02:46:33;;;;;;;8.43;5.63;;;;;;;;;;5115683;28;20672;-55
2022/04/25 02:48:59;;;;;;;9.80;5.63;;;;;;;;;;5115913;28;20210;-55
2022/04/25 02:51:26;;;;;;;6.17;5.20;;;;;;;;;;5115623;28;20190;-55
2022/04/25 02:53:52;;;;;;;7.43;4.87;;;;;;;;;;5115240;28;20190;-55
2022/04/25 02:56:18;;;;;;;6.93;4.77;;;;;;;;;;5115514;28;20201;-55
2022/04/25 02:58:44;;;;;;;11.47;5.93;;;;;;;;;;5115380;28;20255;-55
2022/04/25 03:01:10;;;;;;;7.93;6.07;;;;;;;;;;5115352;28;20213;-55
2022/04/25 03:03:37;;;;;;;7.60;5.67;;;;;;;;;;5115172;28;20584;-55
2022/04/25 03:06:03;;;;;;;8.57;6.33;;;;;;;;;;5115128;28;20730;-54
2022/04/25 03:08:31;;;;;;;7.30;5.00;;;;;;;;;;5115223;28;20231;-54
2022/04/25 03:10:57;;;;;;;6.63;5.50;;;;;;;;;;5114954;28;20562;-54
2022/04/25 03:13:24;;;;;;;8.77;6.47;;;;;;;;;;5114930;27;20202;-55
2022/04/25 03:15:50;;;;;;;9.60;6.20;;;;;;;;;;5114716;28;20230;-55
2022/04/25 03:18:21;;;;;;;9.33;5.30;;;;;;;;;;5115075;28;20201;-55
2022/04/25 03:20:48;;;;;;;6.70;5.90;;;;;;;;;;5114911;28;20602;-55
2022/04/25 03:23:14;;;;;;;9.13;6.10;;;;;;;;;;5114956;27;20218;-55
2022/04/25 03:25:42;;;;;;;10.67;5.93;;;;;;;;;;5114439;28;20651;-55
2022/04/25 03:28:08;;;;;;;8.13;6.00;;;;;;;;;;5114630;28;20501;-55
2022/04/25 03:30:34;;;;;;;8.93;5.90;;;;;;;;;;5114682;28;20235;-55
2022/04/25 03:33:01;;;;;;;7.47;5.40;;;;;;;;;;5114699;28;20661;-55
2022/04/25 03:35:27;;;;;;;11.43;6.43;;;;;;;;;;5114785;28;20221;-55
2022/04/25 03:37:53;;;;;;;9.53;6.00;;;;;;;;;;5114540;28;20193;-55
2022/04/25 03:40:20;;;;;;;11.13;6.33;;;;;;;;;;5114553;28;20615;-55
2022/04/25 03:42:48;;;;;;;8.63;5.67;;;;;;;;;;5114404;28;20229;-55
2022/04/25 03:45:16;;;;;;;7.47;6.33;;;;;;;;;;5114441;28;20612;-55
2022/04/25 03:47:42;;;;;;;7.87;5.67;;;;;;;;;;5114343;27;20206;-55
2022/04/25 03:50:09;;;;;;;9.50;5.70;;;;;;;;;;5114424;28;20216;-55
2022/04/25 03:52:35;;;;;;;7.13;5.60;;;;;;;;;;5114321;28;20283;-55
2022/04/25 03:57:51;;;;;;;8.83;5.20;;;;;;;;;;5114219;28;20252;-55
2022/04/25 04:00:17;;;;;;;6.53;5.37;;;;;;;;;;5114101;28;20234;-55
2022/04/25 04:02:43;;;;;;;9.53;6.07;;;;;;;;;;5114117;28;20550;-55
2022/04/25 04:05:09;;;;;;;9.23;6.33;;;;;;;;;;5114144;28;20200;-55
2022/04/25 04:07:35;;;;;;;8.60;5.77;;;;;;;;;;5114069;28;20195;-55
2022/04/25 04:10:01;;;;;;;6.33;5.50;;;;;;;;;;5114128;28;20737;-55
2022/04/25 04:12:32;;;;;;;8.90;5.90;;;;;;;;;;5114238;28;20229;-55
2022/04/25 04:14:59;;;;;;;7.30;5.63;;;;;;;;;;5113848;27;20312;-54
2022/04/25 04:17:25;;;;;;;7.07;5.63;;;;;;;;;;5114057;28;20206;-55
2022/04/25 04:19:53;;;;;;;7.27;5.10;;;;;;;;;;5113826;28;20255;-55
2022/04/25 04:22:20;;;;;;;5.20;4.70;;;;;;;;;;5113766;28;20222;-55
2022/04/25 04:24:46;;;;;;;5.00;4.50;;;;;;;;;;5113477;28;20233;-55
2022/04/25 04:27:14;;;;;;;7.93;5.67;;;;;;;;;;5113783;28;20554;-55
2022/04/25 04:29:41;;;;;;;6.77;5.20;;;;;;;;;;5113440;28;20206;-55
2022/04/25 04:32:09;;;;;;;8.77;5.40;;;;;;;;;;5113583;28;20236;-55
2022/04/25 04:34:35;;;;;;;7.10;5.50;;;;;;;;;;5113569;28;20194;-55
2022/04/25 04:37:02;;;;;;;8.03;5.17;;;;;;;;;;5112822;28;20210;-55
2022/04/25 04:39:29;;;;;;;5.90;4.80;;;;;;;;;;5113416;28;20198;-55
2022/04/25 04:41:55;;;;;;;6.93;5.23;;;;;;;;;;5113339;28;20672;-55
2022/04/25 04:44:21;;;;;;;5.87;4.30;;;;;;;;;;5113223;28;20241;-55
2022/04/25 04:46:47;;;;;;;6.63;4.97;;;;;;;;;;5113280;28;20194;-55
2022/04/25 04:49:14;;;;;;;7.27;5.33;;;;;;;;;;5113575;28;20217;-55
2022/04/25 04:51:40;;;;;;;6.20;5.60;;;;;;;;;;5113337;28;20209;-55
2022/04/25 04:54:06;;;;;;;6.67;4.93;;;;;;;;;;5113187;28;20190;-55
2022/04/25 04:56:32;;;;;;;6.53;5.00;;;;;;;;;;5113276;28;20198;-55
2022/04/25 04:58:58;;;;;;;8.37;5.40;;;;;;;;;;5113076;28;20204;-55
2022/04/25 05:01:26;;;;;;;8.13;5.43;;;;;;;;;;5113135;27;20269;-55
2022/04/25 05:03:52;;;;;;;5.77;4.80;;;;;;;;;;5112698;28;20226;-55
2022/04/25 05:06:19;;;;;;;7.03;4.87;;;;;;;;;;5112770;28;20243;-55
2022/04/25 05:08:45;;;;;;;6.83;4.80;;;;;;;;;;5112811;28;20210;-55
2022/04/25 05:11:11;;;;;;;6.63;4.90;;;;;;;;;;5112867;28;20212;-55
2022/04/25 05:13:37;;;;;;;5.70;5.10;;;;;;;;;;5112356;28;20255;-56
2022/04/25 05:16:03;;;;;;;5.97;5.37;;;;;;;;;;5112702;28;20233;-55
2022/04/25 05:18:32;;;;;;;7.90;5.00;;;;;;;;;;5112343;28;20239;-55
2022/04/25 05:20:58;;;;;;;6.80;5.30;;;;;;;;;;5112633;28;20247;-55
2022/04/25 05:23:25;;;;;;;6.73;5.23;;;;;;;;;;5112557;28;20222;-55
2022/04/25 05:25:51;;;;;;;6.33;5.33;;;;;;;;;;5112383;28;20225;-55
2022/04/25 05:28:17;;;;;;;7.10;5.40;;;;;;;;;;5112516;28;20260;-56
2022/04/25 05:30:44;;;;;;;7.10;5.20;;;;;;;;;;5112606;28;20682;-55
2022/04/25 05:33:10;;;;;;;7.77;5.67;;;;;;;;;;5112478;28;20247;-56
2022/04/25 05:35:37;;;;;;;6.67;5.53;;;;;;;;;;5112682;28;20218;-55
2022/04/25 05:38:06;;;;;;;7.57;5.73;;;;;;;;;;5112458;28;20194;-55
2022/04/25 05:40:33;;;;;;;7.17;6.03;;;;;;;;;;5112222;28;20210;-55
2022/04/25 05:43:02;;;;;;;7.63;6.20;;;;;;;;;;5112212;28;20680;-55
2022/04/25 05:45:28;;;;;;;6.80;5.80;;;;;;;;;;5112411;28;20259;-55
2022/04/25 05:47:55;;;;;;;8.93;5.60;;;;;;;;;;5111533;28;20198;-55
2022/04/25 05:53:06;;;;;;;8.33;6.13;;;;;;;;;;5112350;28;20244;-55
2022/04/25 05:55:34;;;;;;;7.80;5.87;;;;;;;;;;5112348;28;20209;-55
2022/04/25 05:58:02;;;;;;;6.17;5.43;;;;;;;;;;5112118;28;20202;-55
2022/04/25 06:00:28;;;;;;;9.07;6.03;;;;;;;;;;5112220;28;20781;-55
2022/04/25 06:02:57;;;;;;;7.27;5.43;;;;;;;;;;5112103;28;20190;-55
2022/04/25 06:05:23;;;;;;;11.00;5.97;;;;;;;;;;5112089;28;20590;-55
2022/04/25 06:07:50;;;;;;;6.47;5.73;;;;;;;;;;5111999;28;20185;-56
2022/04/25 06:10:16;;;;;;;7.10;5.53;;;;;;;;;;5112288;28;20194;-55
2022/04/25 06:12:45;;;;;;;8.43;6.07;;;;;;;;;;5112016;28;20261;-55
2022/04/25 06:15:11;;;;;;;6.93;6.23;;;;;;;;;;5111925;28;20237;-55
2022/04/25 06:17:38;;;;;;;9.17;6.07;;;;;;;;;;5111642;28;20535;-55
2022/04/25 06:20:04;;;;;;;7.13;6.20;;;;;;;;;;5111576;28;20763;-55
2022/04/25 06:22:30;;;;;;;8.93;6.10;;;;;;;;;;5112185;28;20288;-55
2022/04/25 06:24:56;;;;;;;8.70;6.67;;;;;;;;;;5111478;28;20304;-55
2022/04/25 06:27:22;;;;;;;9.60;6.20;;;;;;;;;;5111993;28;20632;-55
2022/04/25 06:29:52;;;;;;;9.30;7.17;;;;;;;;;;5111481;28;20194;-55
2022/04/25 06:32:19;;;;;;;8.83;6.20;;;;;;;;;;5111575;28;20255;-55
2022/04/25 06:34:45;;;;;;;8.20;6.07;;;;;;;;;;5111689;28;20244;-55
2022/04/25 06:37:11;;;;;;;7.77;6.20;;;;;;;;;;5111747;28;20205;-55
2022/04/25 06:39:37;;;;;;;6.73;5.97;;;;;;;;;;5111709;28;20198;-55
2022/04/25 06:42:04;;;;;;;7.90;6.27;;;;;;;;;;5111584;28;20213;-55
2022/04/25 06:44:31;;;;;;;9.20;6.37;;;;;;;;;;5111789;28;20230;-55
2022/04/25 06:46:59;;;;;;;8.60;5.93;;;;;;;;;;5111775;28;20271;-55
2022/04/25 06:49:25;;;;;;;7.40;5.97;;;;;;;;;;5111563;28;20243;-55
2022/04/25 06:51:52;;;;;;;7.40;5.83;;;;;;;;;;5111538;28;20195;-55
2022/04/25 06:54:18;;;;;;;10.03;6.07;;;;;;;;;;5111570;28;20201;-55
2022/04/25 06:56:44;;;;;;;8.23;6.20;;;;;;;;;;5111642;28;20199;-56
2022/04/25 06:59:10;;;;;;;8.43;6.13;;;;;;;;;;5111580;28;20629;-55
2022/04/25 07:01:36;;;;;;;10.70;6.10;;;;;;;;;;5115429;28;20285;-55
2022/04/25 07:04:03;;;;;;;5.93;5.20;;;;;;;;;;5115317;28;20305;-55
2022/04/25 07:06:29;;;;;;;7.50;6.10;;;;;;;;;;5115468;27;20252;-61
2022/04/25 07:08:55;;;;;;;9.07;6.57;;;;;;;;;;5115221;28;20669;-56
2022/04/25 07:11:21;;;;;;;9.13;6.80;;;;;;;;;;5115398;28;20193;-55
2022/04/25 07:13:48;;;;;;;12.17;6.30;;;;;;;;;;5115062;28;20295;-56
2022/04/25 07:16:14;;;;;;;9.03;6.57;;;;;;;;;;5115002;28;20205;-56
2022/04/25 07:18:40;;;;;;;8.77;6.53;;;;;;;;;;5114729;28;20573;-56
2022/04/25 07:29:22;;;;;;;11.17;6.60;;;;;;;;;;5114758;28;20193;-56
2022/04/25 07:31:49;;;;;;;9.77;6.10;;;;;;;;;;5114565;28;20214;-56
2022/04/25 07:34:15;;;;;;;10.87;6.60;;;;;;;;;;5114796;28;20194;-57
2022/04/25 07:36:42;;;;;;;12.07;6.33;;;;;;;;;;5114614;28;20533;-57
2022/04/25 07:39:08;;;;;;;8.23;6.27;;;;;;;;;;5114314;28;20614;-54
2022/04/25 07:41:34;;;;;;;7.77;6.13;;;;;;;;;;5114443;28;20206;-55
2022/04/25 07:44:01;;;;;;;6.77;6.07;;;;;;;;;;5114439;28;20452;-54
2022/04/25 07:46:28;;;;;;;11.53;6.37;;;;;;;;;;5114715;28;20201;-54
2022/04/25 07:48:55;;;;;;;10.77;7.03;;;;;;;;;;5114271;28;20227;-55
2022/04/25 07:51:21;;;;;;;9.77;5.87;;;;;;;;;;5114148;28;20637;-54
2022/04/25 07:53:48;;;;;;;8.23;6.50;;;;;;;;;;5114242;28;20235;-55
2022/04/25 07:56:14;;;;;;;6.73;5.97;;;;;;;;;;5114423;28;20202;-51
2022/04/25 07:58:40;;;;;;;10.57;6.47;;;;;;;;;;5114126;28;20251;-54
2022/04/25 08:01:06;;;;;;;11.77;6.20;;;;;;;;;;5114077;27;20198;-54
2022/04/25 08:03:34;;;;;;;10.57;6.10;;;;;;;;;;5114131;28;20226;-53
2022/04/25 08:06:00;;;;;;;12.47;6.43;;;;;;;;;;5114061;28;20202;-53
2022/04/25 08:08:26;;;;;;;11.20;6.23;;;;;;;;;;5114087;28;20205;-53
2022/04/25 08:10:54;;;;;;;9.43;7.03;;;;;;;;;;5113356;28;20416;-53
2022/04/25 08:18:51;;;;;;;8.67;6.63;;;;;;;;;;5113700;28;20193;-54
2022/04/25 08:21:17;;;;;;;9.53;6.27;;;;;;;;;;5113733;28;20205;-54
2022/04/25 08:23:45;;;;;;;10.63;6.27;;;;;;;;;;5113763;28;20206;-54
2022/04/25 08:26:12;;;;;;;9.40;6.30;;;;;;;;;;5113740;28;20240;-54
2022/04/25 08:28:40;;;;;;;12.07;6.67;;;;;;;;;;5113544;28;20281;-54
2022/04/25 08:31:09;;;;;;;9.20;6.70;;;;;;;;;;5113507;28;20201;-54
2022/04/25 08:33:35;;;;;;;8.77;6.47;;;;;;;;;;5113473;28;20201;-55
2022/04/25 08:36:03;;;;;;;7.43;5.77;;;;;;;;;;5113720;28;20251;-56
2022/04/25 08:38:29;;;;;;;8.77;5.73;;;;;;;;;;5113529;28;20233;-55
2022/04/25 08:40:55;;;;;;;9.93;6.40;;;;;;;;;;5113341;28;20714;-55
2022/04/25 08:43:22;;;;;;;9.83;6.07;;;;;;;;;;5113119;28;20206;-55
2022/04/25 08:45:48;;;;;;;10.20;6.43;;;;;;;;;;5113290;28;20205;-54
2022/04/25 08:48:15;;;;;;;10.70;6.73;;;;;;;;;;5113343;28;20265;-54
2022/04/25 08:50:42;;;;;;;11.27;6.27;;;;;;;;;;5113015;28;20193;-55
2022/04/25 08:53:10;;;;;;;7.80;5.73;;;;;;;;;;5112992;28;20297;-54
2022/04/25 08:55:36;;;;;;;10.10;6.47;;;;;;;;;;5113140;28;20341;-54
2022/04/25 08:58:03;;;;;;;8.13;6.20;;;;;;;;;;5112854;28;20216;-55
2022/04/25 09:00:30;;;;;;;7.17;5.53;;;;;;;;;;5108416;28;20190;-53
2022/04/25 09:02:57;;;;;;;6.47;5.70;;;;;;;;;;5112394;28;20727;-53
2022/04/25 09:05:23;;;;;;;7.43;5.40;;;;;;;;;;5113178;28;20218;-53
2022/04/25 09:07:49;;;;;;;9.03;5.70;;;;;;;;;;5112656;28;20662;-53
2022/04/25 09:10:17;;;;;;;7.87;5.90;;;;;;;;;;5112891;28;20830;-54
2022/04/25 09:12:45;;;;;;;8.23;5.60;;;;;;;;;;5112585;28;20202;-52
2022/04/25 09:15:11;;;;;;;6.53;5.67;;;;;;;;;;5112751;28;20237;-53
2022/04/25 09:17:38;;;;;;;9.37;6.23;;;;;;;;;;5112527;28;20567;-52
2022/04/25 09:20:05;;;;;;;9.87;6.03;;;;;;;;;;5112571;28;20203;-53
2022/04/25 09:22:32;;;;;;;6.70;5.10;;;;;;;;;;5111930;28;20209;-52
2022/04/25 09:25:03;;;;;;;9.43;5.67;;;;;;;;;;5112396;28;20643;-53
2022/04/25 09:27:29;;;;;;;9.60;6.13;;;;;;;;;;5112613;28;20202;-54
2022/04/25 09:29:55;;;;;;;9.37;5.90;;;;;;;;;;5112321;28;20247;-54
2022/04/25 09:32:31;;;;;;;11.03;6.17;;;;;;;;;;5112634;28;20194;-53
2022/04/25 09:35:03;;;;;;;6.50;5.50;;;;;;;;;;5112391;28;20240;-53
2022/04/25 09:37:40;;;;;;;8.67;5.80;;;;;;;;;;5112812;28;20201;-54
2022/04/25 09:40:06;;;;;;;10.33;5.30;;;;;;;;;;5112544;28;20202;-53
2022/04/25 09:42:32;;;;;;;7.40;5.60;;;;;;;;;;5112151;28;20198;-54
2022/04/25 09:44:59;;;;;;;8.53;5.50;;;;;;;;;;5112192;28;20283;-53
2022/04/25 09:47:28;;;;;;;6.73;5.90;;;;;;;;;;5112530;28;20194;-54
2022/04/25 09:50:00;;;;;;;7.03;5.50;;;;;;;;;;5112193;28;20293;-54
2022/04/25 09:52:26;;;;;;;6.07;5.40;;;;;;;;;;5112205;28;20217;-53
2022/04/25 09:54:52;;;;;;;8.43;5.60;;;;;;;;;;5109935;28;20665;-53
2022/04/25 09:57:28;;;;;;;6.20;5.23;;;;;;;;;;5112310;28;20229;-54
2022/04/25 09:59:56;;;;;;;9.03;5.17;;;;;;;;;;5112094;28;20283;-53
2022/04/25 10:02:22;;;;;;;8.60;5.90;;;;;;;;;;5111997;28;20285;-53
2022/04/25 10:04:48;;;;;;;7.97;5.17;;;;;;;;;;5111767;28;20688;-54
2022/04/25 10:07:15;;;;;;;7.43;5.43;;;;;;;;;;5112159;28;20251;-52
2022/04/25 10:09:44;;;;;;;8.63;5.80;;;;;;;;;;5112071;28;20206;-54
2022/04/25 10:12:10;;;;;;;9.10;5.70;;;;;;;;;;5111950;28;20676;-53
2022/04/25 10:14:37;;;;;;;9.67;5.50;;;;;;;;;;5111742;28;20249;-55
2022/04/25 10:17:03;;;;;;;7.23;5.47;;;;;;;;;;5112012;28;20591;-54
2022/04/25 10:19:30;;;;;;;10.33;6.37;;;;;;;;;;5112064;28;20202;-53
2022/04/25 10:21:56;;;;;;;6.33;5.27;;;;;;;;;;5106203;28;20213;-54
2022/04/25 10:24:24;;;;;;;9.40;5.60;;;;;;;;;;5111854;28;20226;-54
2022/04/25 10:26:51;;;;;;;8.33;6.00;;;;;;;;;;5111677;28;20682;-55
2022/04/25 10:29:19;;;;;;;9.87;6.07;;;;;;;;;;5107747;28;20204;-54
2022/04/25 10:31:46;;;;;;;8.30;5.53;;;;;;;;;;5111603;28;20193;-53
2022/04/25 10:34:14;;;;;;;9.70;5.70;;;;;;;;;;5111595;28;20260;-53
2022/04/25 10:36:47;;;;;;;11.57;6.07;;;;;;;;;;5115696;28;20202;-54
2022/04/25 10:39:14;;;;;;;7.90;5.70;;;;;;;;;;5115660;28;20190;-53
2022/04/25 10:44:48;;;;;;;7.20;5.53;;;;;;;;;;5115575;28;20712;-53
2022/04/25 10:47:16;;;;;;;7.57;5.27;;;;;;;;;;5115569;28;20556;-53
2022/04/25 10:49:42;;;;;;;8.67;5.90;;;;;;;;;;5115869;28;20205;-53
2022/04/25 10:52:23;;;;;;;9.43;6.03;;;;;;;;;;5115151;28;20595;-53
2022/04/25 10:54:51;;;;;;;8.10;5.60;;;;;;;;;;5114777;28;20190;-53
2022/04/25 10:57:19;;;;;;;7.33;5.30;;;;;;;;;;5115366;28;20209;-53
2022/04/25 10:59:45;;;;;;;9.47;5.83;;;;;;;;;;5115068;28;20288;-53
2022/04/25 11:02:21;;;;;;;7.37;5.60;;;;;;;;;;5115049;28;20197;-52
2022/04/25 11:04:47;;;;;;;9.40;6.27;;;;;;;;;;5115332;28;20229;-53
2022/04/25 11:07:20;;;;;;;8.87;5.40;;;;;;;;;;5114999;28;20560;-54
2022/04/25 11:09:46;;;;;;;8.97;5.60;;;;;;;;;;5114699;28;20214;-52
2022/04/25 11:12:12;;;;;;;8.10;5.13;;;;;;;;;;5114862;28;20229;-54
2022/04/25 11:14:55;;;;;;;9.80;5.20;;;;;;;;;;5114748;28;20351;-53
2022/04/25 11:17:21;;;;;;;7.47;5.00;;;;;;;;;;5115050;28;20209;-54
2022/04/25 11:19:51;;;;;;;6.97;5.30;;;;;;;;;;5114621;28;20590;-53
2022/04/25 11:22:32;;;;;;;7.83;5.13;;;;;;;;;;5114928;28;20270;-54
2022/04/25 11:25:18;;;;;;;7.70;5.43;;;;;;;;;;5110858;28;20287;-54
2022/04/25 11:28:02;;;;;;;8.70;5.53;;;;;;;;;;5113849;28;20194;-53
2022/04/25 11:30:29;;;;;;;8.23;5.50;;;;;;;;;;5114943;28;20194;-52
2022/04/25 11:33:01;;;;;;;5.30;4.70;;;;;;;;;;5112912;28;20194;-54
2022/04/25 11:35:28;;;;;;;8.13;4.43;;;;;;;;;;5114837;28;20194;-54
2022/04/25 11:37:56;;;;;;;6.87;4.97;;;;;;;;;;5114588;28;20194;-54
2022/04/25 11:40:23;;;;;;;5.37;4.30;;;;;;;;;;5113183;28;20205;-54
2022/04/25 11:42:49;;;;;;;5.10;4.60;;;;;;;;;;5114485;28;20198;-54
2022/04/25 11:45:15;;;;;;;6.57;5.10;;;;;;;;;;5114743;28;20226;-55
2022/04/25 11:47:43;;;;;;;7.40;5.53;;;;;;;;;;5114544;28;20664;-54
2022/04/25 11:50:11;;;;;;;6.47;4.80;;;;;;;;;;5114583;28;20210;-55
2022/04/25 11:52:44;;;;;;;8.27;5.40;;;;;;;;;;5114571;28;20611;-55
2022/04/25 11:55:10;;;;;;;4.70;4.23;;;;;;;;;;5114553;28;20269;-55
2022/04/25 11:57:38;;;;;;;6.20;4.80;;;;;;;;;;5114399;28;20229;-55
2022/04/25 12:00:11;;;;;;;7.53;4.87;;;;;;;;;;5114268;28;20228;-55
2022/04/25 12:02:37;;;;;;;5.27;4.37;;;;;;;;;;5114460;28;20194;-55
2022/04/25 12:05:07;;;;;;;6.97;4.43;;;;;;;;;;5114180;28;20230;-56
2022/04/25 12:07:33;;;;;;;7.17;4.63;;;;;;;;;;5114477;28;20612;-55
2022/04/25 12:15:42;;;;;;;6.33;4.27;;;;;;;;;;5113929;28;20607;-56
2022/04/25 12:18:13;;;;;;;6.37;4.47;;;;;;;;;;5114079;28;20674;-55
2022/04/25 12:20:40;;;;;;;6.30;4.57;;;;;;;;;;5114239;28;20237;-55
2022/04/25 12:23:06;;;;;;;5.90;5.00;;;;;;;;;;5114015;28;20206;-56
2022/04/25 12:25:33;;;;;;;9.33;4.87;;;;;;;;;;5113725;28;20252;-54
2022/04/25 12:28:03;;;;;;;5.30;4.80;;;;;;;;;;5113952;27;20247;-55
2022/04/25 12:30:32;;;;;;;5.63;4.63;;;;;;;;;;5114097;28;20205;-54
2022/04/25 12:33:05;;;;;;;6.30;4.37;;;;;;;;;;5113611;28;20653;-55
2022/04/25 12:35:31;;;;;;;6.03;4.63;;;;;;;;;;5113947;28;20203;-56
2022/04/25 12:37:58;;;;;;;6.63;4.00;;;;;;;;;;5113695;28;20626;-55
2022/04/25 12:40:24;;;;;;;4.63;3.97;;;;;;;;;;5113594;28;20663;-56
2022/04/25 12:42:54;;;;;;;4.53;4.13;;;;;;;;;;5113587;28;20197;-55
2022/04/25 12:45:20;;;;;;;5.00;4.17;;;;;;;;;;5113545;28;20232;-55
2022/04/25 12:47:46;;;;;;;4.57;4.00;;;;;;;;;;5113681;28;20240;-54
2022/04/25 12:50:12;;;;;;;7.83;4.43;;;;;;;;;;5113563;28;20196;-54
2022/04/25 12:52:46;;;;;;;5.17;4.03;;;;;;;;;;5113464;28;20615;-55
2022/04/25 12:55:13;;;;;;;6.20;4.27;;;;;;;;;;5113556;28;20204;-55
2022/04/25 12:57:50;;;;;;;5.03;4.40;;;;;;;;;;5112857;28;20207;-55
2022/04/25 13:00:16;;;;;;;9.43;4.47;;;;;;;;;;5113379;28;20602;-55
2022/04/25 13:02:42;;;;;;;4.83;4.33;;;;;;;;;;5113301;28;20197;-55
2022/04/25 13:05:08;;;;;;;7.57;4.40;;;;;;;;;;5112848;28;20286;-56
2022/04/25 13:07:37;;;;;;;8.73;4.47;;;;;;;;;;5112937;28;20199;-55
2022/04/25 13:10:04;;;;;;;7.57;4.50;;;;;;;;;;5112950;28;20198;-55
2022/04/25 13:12:33;;;;;;;5.83;4.63;;;;;;;;;;5108923;28;20610;-54
2022/04/25 13:14:59;;;;;;;5.00;4.30;;;;;;;;;;5112854;28;20232;-54
2022/04/25 13:17:25;;;;;;;6.73;3.87;;;;;;;;;;5112902;28;20201;-55
2022/04/25 13:19:52;;;;;;;6.60;4.53;;;;;;;;;;5110939;28;20249;-56
2022/04/25 13:22:18;;;;;;;5.17;4.17;;;;;;;;;;5112784;28;20664;-57
2022/04/25 13:24:45;;;;;;;7.60;4.27;;;;;;;;;;5112696;28;20314;-54
2022/04/25 13:27:11;;;;;;;7.00;4.10;;;;;;;;;;5112667;28;20229;-55
2022/04/25 13:29:38;;;;;;;5.40;4.43;;;;;;;;;;5112783;28;20197;-54
2022/04/25 13:32:05;;;;;;;5.93;4.07;;;;;;;;;;5112622;28;20205;-53
2022/04/25 13:34:31;;;;;;;4.67;4.23;;;;;;;;;;5112635;28;20220;-54
2022/04/25 13:36:58;;;;;;;4.87;4.07;;;;;;;;;;5109416;28;20613;-54
2022/04/25 13:39:24;;;;;;;7.73;4.20;;;;;;;;;;5111755;28;20223;-53
2022/04/25 13:41:52;;;;;;;4.47;4.07;;;;;;;;;;5112044;28;20205;-54
2022/04/25 13:44:18;;;;;;;6.93;4.70;;;;;;;;;;5112027;28;20225;-53
2022/04/25 13:46:46;;;;;;;6.57;4.17;;;;;;;;;;5112142;28;20288;-54
2022/04/25 13:49:12;;;;;;;6.03;4.17;;;;;;;;;;5112079;28;20206;-54
2022/04/25 13:51:38;;;;;;;6.33;4.17;;;;;;;;;;5112237;28;20226;-54
2022/04/25 13:54:04;;;;;;;6.60;4.53;;;;;;;;;;5111932;28;20207;-54
2022/04/25 13:56:30;;;;;;;5.50;4.70;;;;;;;;;;5111974;28;20197;-54
2022/04/25 13:58:56;;;;;;;6.10;4.97;;;;;;;;;;5112207;28;20227;-53
2022/04/25 14:01:22;;;;;;;7.83;4.60;;;;;;;;;;5112014;28;20198;-54
2022/04/25 14:03:53;;;;;;;4.70;4.20;;;;;;;;;;5111537;28;20208;-54
2022/04/25 14:06:19;;;;;;;4.83;4.23;;;;;;;;;;5112091;28;20289;-56
2022/04/25 14:08:45;;;;;;;10.17;4.40;;;;;;;;;;5112260;28;20312;-54
2022/04/25 14:11:11;;;;;;;5.63;4.47;;;;;;;;;;5113785;28;20257;-54
2022/04/25 14:13:37;;;;;;;6.67;4.20;;;;;;;;;;5116387;28;20244;-54
2022/04/25 14:16:04;;;;;;;6.17;4.87;;;;;;;;;;5116301;28;20210;-55
2022/04/25 14:18:30;;;;;;;5.30;4.57;;;;;;;;;;5116452;28;20564;-55
2022/04/25 14:20:58;;;;;;;6.13;4.13;;;;;;;;;;5116256;28;20274;-55
2022/04/25 14:23:25;;;;;;;5.27;4.73;;;;;;;;;;5116229;28;20578;-55
2022/04/25 14:25:54;;;;;;;7.80;4.70;;;;;;;;;;5116138;28;20222;-54
2022/04/25 14:28:20;;;;;;;5.47;4.97;;;;;;;;;;5115907;28;20211;-54
2022/04/25 14:30:46;;;;;;;5.40;4.53;;;;;;;;;;5116179;28;20197;-54
2022/04/25 14:33:12;;;;;;;6.83;4.57;;;;;;;;;;5115959;28;20275;-53
2022/04/25 14:35:38;;;;;;;6.83;4.73;;;;;;;;;;5115924;28;20743;-53
2022/04/25 14:38:06;;;;;;;8.70;4.53;;;;;;;;;;5115878;28;20262;-53
2022/04/25 14:40:32;;;;;;;6.03;5.43;;;;;;;;;;5115970;28;20221;-54
2022/04/25 14:42:58;;;;;;;8.00;5.03;;;;;;;;;;5115706;28;20697;-54
2022/04/25 14:45:27;;;;;;;9.00;5.50;;;;;;;;;;5115528;28;20646;-53
2022/04/25 14:47:53;;;;;;;9.90;5.83;;;;;;;;;;5115783;28;20294;-54
2022/04/25 14:55:50;;;;;;;10.20;5.90;;;;;;;;;;5115641;28;20273;-54
2022/04/25 14:58:16;;;;;;;6.53;5.40;;;;;;;;;;5113942;28;20667;-54
2022/04/25 15:00:43;;;;;;;6.43;5.60;;;;;;;;;;5115687;28;20659;-54
2022/04/25 15:03:09;;;;;;;9.07;6.47;;;;;;;;;;5115488;28;20825;-54
2022/04/25 15:05:39;;;;;;;7.03;5.60;;;;;;;;;;5115502;28;20221;-54
2022/04/25 15:08:08;;;;;;;9.73;5.87;;;;;;;;;;5115229;28;20571;-54
2022/04/25 15:10:34;;;;;;;9.47;5.80;;;;;;;;;;5115539;28;20285;-54
2022/04/25 15:13:00;;;;;;;6.47;5.77;;;;;;;;;;5115234;28;20237;-54
2022/04/25 15:15:26;;;;;;;6.93;5.80;;;;;;;;;;5115295;28;20269;-54
2022/04/25 15:17:52;;;;;;;7.23;6.13;;;;;;;;;;5115299;28;20205;-53